Time;durP1;ratioP1;P1;durP2;ratioP2;P2;SDS_P1;SDS_P2;PMS_P1;PMS_P2;Temp;Humidity;BMP_temperature;BMP_pressure;BME280_temperature;BME280_humidity;BME280_pressure;Samples;Min_cycle;Max_cycle;Signal;HPM_P1;HPM_P2
2022/05/16 00:02:21;;;;;;;0.00;0.00;;;19.50;87.00;;;;;;4148169;28;20061;-70
2022/05/16 00:04:51;;;;;;;0.00;0.00;;;19.60;87.10;;;;;;4149180;28;20423;-71
2022/05/16 00:07:19;;;;;;;0.00;0.00;;;19.50;87.00;;;;;;4148372;28;20050;-69
2022/05/16 00:09:44;;;;;;;0.00;0.00;;;19.40;87.30;;;;;;4148933;28;20049;-70
2022/05/16 00:12:17;;;;;;;0.00;0.00;;;19.40;87.50;;;;;;4149097;28;20045;-69
2022/05/16 00:14:58;;;;;;;0.00;0.00;;;19.50;87.50;;;;;;4137386;28;20078;-69
2022/05/16 00:17:29;;;;;;;0.00;0.00;;;19.40;87.30;;;;;;4134759;28;20127;-68
2022/05/16 00:19:54;;;;;;;0.00;0.00;;;19.50;87.30;;;;;;4134792;28;20514;-74
2022/05/16 00:22:27;;;;;;;0.00;0.00;;;19.50;87.00;;;;;;4147850;28;20049;-71
2022/05/16 00:25:17;;;;;;;0.00;0.00;;;19.60;86.60;;;;;;4148093;28;20057;-69
2022/05/16 00:27:55;;;;;;;0.00;0.00;;;19.70;86.10;;;;;;4136305;28;20081;-68
2022/05/16 00:30:27;;;;;;;0.00;0.00;;;19.60;86.00;;;;;;4135132;28;20045;-69
2022/05/16 00:32:52;;;;;;;0.00;0.00;;;19.70;86.00;;;;;;4147857;28;20124;-68
2022/05/16 00:35:21;;;;;;;0.00;0.00;;;19.80;85.70;;;;;;4147997;28;20423;-68
2022/05/16 00:37:49;;;;;;;0.00;0.00;;;19.90;85.40;;;;;;4147978;28;20145;-70
2022/05/16 00:40:19;;;;;;;0.00;0.00;;;19.90;85.40;;;;;;4148783;28;20133;-72
2022/05/16 00:42:47;;;;;;;0.00;0.00;;;19.90;85.40;;;;;;4148880;28;20046;-73
2022/05/16 00:45:14;;;;;;;0.00;0.00;;;20.00;85.70;;;;;;4147647;28;20061;-71
2022/05/16 00:47:47;;;;;;;0.00;0.00;;;20.10;84.90;;;;;;4122455;28;20120;-71
2022/05/16 00:50:29;;;;;;;0.00;0.00;;;20.10;84.70;;;;;;4134094;28;20122;-71
2022/05/16 00:53:03;;;;;;;0.00;0.00;;;20.00;84.70;;;;;;4134151;28;20137;-69
2022/05/16 00:55:37;;;;;;;0.00;0.00;;;19.90;84.90;;;;;;4134083;28;20077;-72
2022/05/16 00:58:08;;;;;;;0.00;0.00;;;20.00;85.00;;;;;;4120944;28;20077;-69
2022/05/16 01:00:35;;;;;;;0.00;0.00;;;20.10;85.10;;;;;;4148690;28;20168;-68
2022/05/16 01:05:56;;;;;;;0.00;0.00;;;20.00;86.00;;;;;;4148618;28;20409;-70
2022/05/16 01:08:33;;;;;;;0.00;0.00;;;20.00;86.70;;;;;;4135624;28;20092;-72
2022/05/16 01:11:08;;;;;;;0.00;0.00;;;20.00;86.90;;;;;;4147775;28;20115;-69
2022/05/16 01:13:43;;;;;;;0.00;0.00;;;20.10;87.10;;;;;;4133922;28;20046;-70
2022/05/16 01:16:10;;;;;;;0.00;0.00;;;20.10;86.80;;;;;;4134327;28;20043;-69
2022/05/16 01:18:36;;;;;;;0.00;0.00;;;20.20;86.70;;;;;;4148198;28;20050;-68
2022/05/16 01:21:30;;;;;;;0.00;0.00;;;20.20;86.70;;;;;;4148478;28;20060;-69
2022/05/16 01:24:13;;;;;;;0.00;0.00;;;20.20;86.70;;;;;;4134330;28;20133;-70
2022/05/16 01:26:36;;;;;;;0.00;0.00;;;20.20;86.90;;;;;;4133865;28;20074;-70
2022/05/16 01:29:09;;;;;;;0.00;0.00;;;20.20;87.50;;;;;;4134044;28;20087;-69
2022/05/16 01:31:33;;;;;;;0.00;0.00;;;20.20;88.30;;;;;;4148428;28;20498;-69
2022/05/16 01:34:02;;;;;;;0.00;0.00;;;20.20;88.40;;;;;;4147538;28;20046;-69
2022/05/16 01:36:29;;;;;;;0.00;0.00;;;20.30;88.70;;;;;;4148252;28;20038;-68
2022/05/16 01:39:06;;;;;;;0.00;0.00;;;20.30;88.60;;;;;;4122044;28;20062;-70
2022/05/16 01:41:28;;;;;;;0.00;0.00;;;20.30;88.60;;;;;;4133754;28;20055;-70
2022/05/16 01:43:55;;;;;;;0.00;0.00;;;20.30;88.70;;;;;;4133799;28;20046;-70
2022/05/16 01:46:24;;;;;;;0.00;0.00;;;20.20;88.90;;;;;;4150339;28;20120;-69
2022/05/16 01:48:49;;;;;;;0.00;0.00;;;20.20;88.60;;;;;;4136752;28;20050;-70
2022/05/16 01:51:12;;;;;;;0.00;0.00;;;20.20;88.20;;;;;;4151272;28;20465;-71
2022/05/16 01:53:37;;;;;;;0.00;0.00;;;20.10;88.00;;;;;;4153006;28;20073;-70
2022/05/16 01:56:02;;;;;;;0.00;0.00;;;20.00;88.00;;;;;;4152966;28;20079;-72
2022/05/16 01:58:26;;;;;;;0.00;0.00;;;19.90;88.00;;;;;;4152794;28;20065;-70
2022/05/16 02:00:57;;;;;;;0.00;0.00;;;20.00;87.90;;;;;;4152998;28;20038;-69
2022/05/16 02:03:19;;;;;;;0.00;0.00;;;19.90;87.90;;;;;;4125948;28;20163;-71
2022/05/16 02:05:46;;;;;;;0.00;0.00;;;19.90;88.30;;;;;;4153114;28;20338;-69
2022/05/16 02:08:09;;;;;;;0.00;0.00;;;19.90;88.70;;;;;;4139254;28;20132;-70
2022/05/16 02:10:31;;;;;;;0.00;0.00;;;19.80;88.90;;;;;;4152613;28;20148;-69
2022/05/16 02:12:57;;;;;;;0.00;0.00;;;19.70;89.30;;;;;;4166250;28;20102;-69
2022/05/16 02:15:23;;;;;;;0.00;0.00;;;19.70;89.50;;;;;;4152468;28;20041;-72
2022/05/16 02:17:45;;;;;;;0.00;0.00;;;19.70;89.50;;;;;;4152766;28;20050;-71
2022/05/16 02:20:10;;;;;;;0.00;0.00;;;19.70;89.30;;;;;;4138769;28;20046;-70
2022/05/16 02:25:25;;;;;;;0.00;0.00;;;19.80;88.90;;;;;;4152771;28;20054;-68
2022/05/16 02:27:49;;;;;;;0.00;0.00;;;19.90;88.70;;;;;;4152701;28;20354;-68
2022/05/16 02:30:17;;;;;;;0.00;0.00;;;19.90;88.50;;;;;;4152538;28;20084;-70
2022/05/16 02:32:39;;;;;;;0.00;0.00;;;19.90;88.40;;;;;;4152179;28;20042;-69
2022/05/16 02:35:09;;;;;;;0.00;0.00;;;19.90;88.30;;;;;;4151936;28;20041;-70
2022/05/16 02:37:31;;;;;;;0.00;0.00;;;19.80;88.20;;;;;;4152415;28;20046;-70
2022/05/16 02:39:56;;;;;;;0.00;0.00;;;19.70;88.40;;;;;;4166200;28;20538;-68
2022/05/16 02:42:19;;;;;;;0.00;0.00;;;19.60;88.80;;;;;;4152184;28;20038;-69
2022/05/16 02:44:46;;;;;;;0.00;0.00;;;19.50;89.00;;;;;;4138702;28;20112;-68
2022/05/16 02:47:16;;;;;;;0.00;0.00;;;19.60;89.20;;;;;;4152420;28;20054;-71
2022/05/16 02:49:38;;;;;;;0.00;0.00;;;19.60;89.10;;;;;;4151791;28;20066;-70
2022/05/16 02:52:00;;;;;;;0.00;0.00;;;19.70;88.90;;;;;;4138542;28;20097;-68
2022/05/16 02:54:21;;;;;;;0.00;0.00;;;19.60;88.70;;;;;;4151860;28;20107;-69
2022/05/16 02:56:43;;;;;;;0.00;0.00;;;19.70;88.70;;;;;;4151264;28;20116;-70
2022/05/16 02:59:06;;;;;;;0.00;0.00;;;19.60;88.60;;;;;;4138502;28;20056;-70
2022/05/16 03:01:34;;;;;;;0.00;0.00;;;19.60;88.40;;;;;;4165849;28;20045;-69
2022/05/16 03:03:56;;;;;;;0.00;0.00;;;19.60;88.30;;;;;;4151840;28;20045;-70
2022/05/16 03:06:21;;;;;;;0.00;0.00;;;19.60;88.10;;;;;;4151902;28;20078;-71
2022/05/16 03:08:48;;;;;;;0.00;0.00;;;19.60;87.90;;;;;;4151932;28;20555;-72
2022/05/16 03:11:14;;;;;;;0.00;0.00;;;19.60;87.50;;;;;;4151621;28;20112;-69
2022/05/16 03:13:41;;;;;;;0.00;0.00;;;19.60;87.50;;;;;;4151804;28;20053;-69
2022/05/16 03:16:03;;;;;;;0.00;0.00;;;19.60;87.50;;;;;;4137948;28;20050;-71
2022/05/16 03:18:29;;;;;;;0.00;0.00;;;19.60;87.50;;;;;;4138372;28;20377;-69
2022/05/16 03:20:51;;;;;;;0.00;0.00;;;19.60;87.50;;;;;;4138172;28;20114;-69
2022/05/16 03:23:13;;;;;;;0.00;0.00;;;19.60;87.40;;;;;;4165235;28;20077;-69
2022/05/16 03:25:38;;;;;;;0.00;0.00;;;19.60;87.40;;;;;;4165657;28;20140;-68
2022/05/16 03:28:06;;;;;;;0.00;0.00;;;19.60;87.30;;;;;;4151840;28;20461;-68
2022/05/16 03:30:30;;;;;;;0.00;0.00;;;19.60;87.10;;;;;;4137903;28;20046;-70
2022/05/16 03:32:52;;;;;;;0.00;0.00;;;19.60;87.00;;;;;;4151417;28;20033;-71
2022/05/16 03:35:15;;;;;;;0.00;0.00;;;19.60;86.90;;;;;;4151550;28;20057;-70
2022/05/16 03:37:37;;;;;;;0.00;0.00;;;19.50;86.90;;;;;;4137926;28;20054;-70
2022/05/16 03:42:47;;;;;;;0.00;0.00;;;19.40;86.90;;;;;;4137878;28;20149;-69
2022/05/16 03:45:13;;;;;;;0.00;0.00;;;19.40;87.10;;;;;;4124318;28;20117;-70
2022/05/16 03:47:35;;;;;;;0.00;0.00;;;19.40;87.10;;;;;;4138272;28;20054;-69
2022/05/16 03:50:00;;;;;;;0.00;0.00;;;19.40;87.10;;;;;;4124338;28;20050;-69
2022/05/16 03:52:22;;;;;;;0.00;0.00;;;19.30;87.50;;;;;;4165329;28;20041;-69
2022/05/16 03:54:49;;;;;;;0.00;0.00;;;19.30;87.50;;;;;;4139179;28;20077;-68
2022/05/16 03:57:13;;;;;;;0.00;0.00;;;19.30;87.60;;;;;;4152308;28;20042;-70
2022/05/16 03:59:37;;;;;;;0.00;0.00;;;19.30;87.50;;;;;;4152035;28;20535;-70
2022/05/16 04:02:02;;;;;;;0.00;0.00;;;19.30;87.40;;;;;;4151665;28;20432;-69
2022/05/16 04:04:30;;;;;;;0.00;0.00;;;19.30;87.20;;;;;;4137858;28;20038;-69
2022/05/16 04:06:55;;;;;;;0.00;0.00;;;19.30;87.10;;;;;;4151564;28;20080;-72
2022/05/16 04:09:22;;;;;;;0.00;0.00;;;19.30;87.10;;;;;;4151392;28;20088;-69
2022/05/16 04:11:44;;;;;;;0.00;0.00;;;19.30;87.20;;;;;;4137827;28;20061;-70
2022/05/16 04:14:07;;;;;;;0.00;0.00;;;19.30;87.20;;;;;;4137887;28;20046;-69
2022/05/16 04:16:34;;;;;;;0.00;0.00;;;19.30;87.20;;;;;;4151177;28;20044;-68
2022/05/16 04:18:59;;;;;;;0.00;0.00;;;19.30;87.30;;;;;;4151292;28;20045;-69
2022/05/16 04:21:21;;;;;;;0.00;0.00;;;19.30;87.30;;;;;;4137765;28;20053;-69
2022/05/16 04:23:47;;;;;;;0.00;0.00;;;19.40;87.30;;;;;;4164958;28;20042;-70
2022/05/16 04:26:11;;;;;;;0.00;0.00;;;19.20;87.60;;;;;;4138082;28;20132;-69
2022/05/16 04:28:33;;;;;;;0.00;0.00;;;19.20;87.80;;;;;;4137488;28;20046;-71
2022/05/16 04:30:59;;;;;;;0.00;0.00;;;19.10;87.80;;;;;;4151063;28;20136;-69
2022/05/16 04:33:23;;;;;;;0.00;0.00;;;19.20;87.90;;;;;;4151005;28;20037;-70
2022/05/16 04:35:47;;;;;;;0.00;0.00;;;19.20;87.80;;;;;;4137334;28;20050;-71
2022/05/16 04:38:13;;;;;;;0.00;0.00;;;19.30;87.90;;;;;;4150992;28;20038;-68
2022/05/16 04:42:40;;;;;;;0.00;0.00;;;19.30;88.00;;;;;;4137665;28;20058;-68
2022/05/16 04:43:17;;;;;;;0.00;0.00;;;19.30;88.00;;;;;;4137263;28;20042;-74
2022/05/16 04:45:39;;;;;;;0.00;0.00;;;19.30;87.90;;;;;;4151116;28;20049;-68
2022/05/16 04:48:01;;;;;;;0.00;0.00;;;19.20;88.20;;;;;;4150711;28;20061;-68
2022/05/16 04:50:32;;;;;;;0.00;0.00;;;19.30;88.30;;;;;;4137308;28;20101;-70
2022/05/16 04:52:56;;;;;;;0.00;0.00;;;19.30;88.40;;;;;;4150901;28;20408;-69
2022/05/16 04:55:20;;;;;;;0.00;0.00;;;19.40;88.80;;;;;;4151061;28;20048;-70
2022/05/16 04:57:47;;;;;;;0.00;0.00;;;19.40;88.10;;;;;;4137442;28;20050;-67
2022/05/16 05:00:11;;;;;;;0.00;0.00;;;19.50;88.00;;;;;;4150621;28;20041;-70
2022/05/16 05:02:36;;;;;;;0.00;0.00;;;19.50;87.90;;;;;;4164760;28;20566;-69
2022/05/16 05:05:03;;;;;;;0.00;0.00;;;19.50;87.70;;;;;;4150601;28;20164;-67
2022/05/16 05:07:26;;;;;;;0.00;0.00;;;19.50;87.80;;;;;;4137326;28;20062;-71
2022/05/16 05:15:12;;;;;;;0.00;0.00;;;19.50;88.30;;;;;;4150923;28;20135;-71
2022/05/16 05:17:34;;;;;;;0.00;0.00;;;19.50;88.80;;;;;;4150701;28;20034;-71
2022/05/16 05:19:56;;;;;;;0.00;0.00;;;19.60;89.30;;;;;;4152591;28;20473;-71
2022/05/16 05:22:18;;;;;;;0.00;0.00;;;19.70;89.30;;;;;;4153816;28;20176;-69
2022/05/16 05:24:45;;;;;;;0.00;0.00;;;19.80;89.40;;;;;;4153432;28;20045;-66
2022/05/16 05:27:06;;;;;;;0.00;0.00;;;19.90;89.60;;;;;;4153808;28;20107;-67
2022/05/16 05:29:31;;;;;;;0.00;0.00;;;20.00;89.70;;;;;;4140537;28;20392;-66
2022/05/16 05:31:53;;;;;;;0.00;0.00;;;20.00;89.60;;;;;;4140016;28;20050;-66
2022/05/16 05:34:20;;;;;;;0.00;0.00;;;20.10;89.70;;;;;;4153827;28;20408;-66
2022/05/16 05:36:48;;;;;;;0.00;0.00;;;20.10;89.30;;;;;;4153447;28;20132;-67
2022/05/16 05:39:13;;;;;;;0.00;0.00;;;20.20;88.90;;;;;;4139748;28;20062;-67
2022/05/16 05:41:37;;;;;;;0.00;0.00;;;20.20;89.00;;;;;;4140374;28;20124;-67
2022/05/16 05:43:59;;;;;;;0.00;0.00;;;20.20;89.00;;;;;;4139850;28;20050;-66
2022/05/16 05:46:26;;;;;;;0.00;0.00;;;20.20;88.90;;;;;;4139767;28;20050;-66
2022/05/16 05:48:51;;;;;;;0.00;0.00;;;20.20;88.70;;;;;;4153327;28;20081;-68
2022/05/16 05:51:16;;;;;;;0.00;0.00;;;20.20;88.90;;;;;;4139928;28;20075;-67
2022/05/16 05:53:43;;;;;;;0.00;0.00;;;20.10;89.10;;;;;;4153118;28;20080;-65
2022/05/16 05:56:08;;;;;;;0.00;0.00;;;20.10;89.30;;;;;;4153178;28;20041;-65
2022/05/16 05:58:36;;;;;;;0.00;0.00;;;20.00;89.60;;;;;;4153367;28;20043;-66
2022/05/16 06:01:00;;;;;;;0.00;0.00;;;19.90;90.00;;;;;;4139639;28;20053;-65
2022/05/16 06:03:24;;;;;;;0.00;0.00;;;19.90;90.10;;;;;;4153359;28;20487;-67
2022/05/16 06:05:49;;;;;;;0.00;0.00;;;19.90;90.10;;;;;;4139762;28;20496;-65
2022/05/16 06:08:11;;;;;;;0.00;0.00;;;19.90;90.00;;;;;;4139521;28;20086;-65
2022/05/16 06:10:34;;;;;;;0.00;0.00;;;19.90;90.00;;;;;;4139777;28;20062;-64
2022/05/16 06:13:01;;;;;;;0.00;0.00;;;19.90;90.00;;;;;;4139357;28;20058;-65
2022/05/16 06:15:26;;;;;;;0.00;0.00;;;19.90;89.60;;;;;;4139588;28;20054;-64
2022/05/16 06:17:50;;;;;;;0.00;0.00;;;19.90;88.60;;;;;;4152717;28;20046;-65
2022/05/16 06:20:18;;;;;;;0.00;0.00;;;19.80;88.60;;;;;;4139736;28;20065;-65
2022/05/16 06:22:43;;;;;;;0.00;0.00;;;19.90;89.00;;;;;;4139224;28;20089;-65
2022/05/16 06:25:33;;;;;;;0.00;0.00;;;19.90;89.00;;;;;;4152944;28;20460;-65
2022/05/16 06:27:57;;;;;;;0.00;0.00;;;20.00;89.10;;;;;;4152961;28;20717;-64
2022/05/16 06:30:22;;;;;;;0.00;0.00;;;19.90;89.10;;;;;;4138986;28;20046;-66
2022/05/16 06:32:44;;;;;;;0.00;0.00;;;19.90;88.70;;;;;;4139094;28;20392;-65
2022/05/16 06:35:07;;;;;;;0.00;0.00;;;19.80;88.80;;;;;;4139260;28;20539;-66
2022/05/16 06:37:31;;;;;;;0.00;0.00;;;19.90;88.90;;;;;;4138903;28;20114;-65
2022/05/16 06:39:55;;;;;;;0.00;0.00;;;19.80;89.00;;;;;;4152436;28;20089;-66
2022/05/16 06:42:22;;;;;;;0.00;0.00;;;19.80;89.20;;;;;;4152393;28;20041;-66
2022/05/16 06:44:44;;;;;;;0.00;0.00;;;19.90;88.90;;;;;;4138886;28;20085;-65
2022/05/16 06:47:08;;;;;;;0.00;0.00;;;19.90;88.80;;;;;;4138681;28;20066;-65
2022/05/16 06:49:30;;;;;;;0.00;0.00;;;19.90;88.30;;;;;;4136021;28;20046;-65
2022/05/16 06:51:52;;;;;;;0.00;0.00;;;20.00;88.30;;;;;;4135765;28;20061;-65
2022/05/16 06:54:13;;;;;;;0.00;0.00;;;20.10;87.80;;;;;;4149216;28;20053;-67
2022/05/16 06:56:35;;;;;;;0.00;0.00;;;20.20;87.30;;;;;;4148449;28;20056;-66
2022/05/16 06:59:00;;;;;;;0.00;0.00;;;20.20;87.40;;;;;;4145730;28;20049;-64
2022/05/16 07:01:22;;;;;;;0.00;0.00;;;20.40;87.50;;;;;;4148344;28;20073;-65
2022/05/16 07:03:44;;;;;;;0.00;0.00;;;20.60;87.00;;;;;;4148505;28;20099;-65
2022/05/16 07:06:14;;;;;;;0.00;0.00;;;20.80;86.40;;;;;;4148160;28;20693;-64
2022/05/16 07:08:39;;;;;;;0.00;0.00;;;20.90;85.00;;;;;;4134750;28;20058;-66
2022/05/16 07:11:03;;;;;;;0.00;0.00;;;21.00;84.20;;;;;;4134911;28;20085;-65
2022/05/16 07:13:29;;;;;;;0.00;0.00;;;21.10;84.30;;;;;;4148307;28;20099;-65
2022/05/16 07:15:54;;;;;;;0.00;0.00;;;21.30;83.50;;;;;;4148253;28;20050;-65
2022/05/16 07:18:17;;;;;;;0.00;0.00;;;21.50;81.90;;;;;;4148569;28;20081;-65
2022/05/16 07:20:40;;;;;;;0.00;0.00;;;21.50;80.70;;;;;;4161999;28;20057;-65
2022/05/16 07:23:07;;;;;;;0.00;0.00;;;21.60;79.80;;;;;;4148266;28;20085;-66
2022/05/16 07:27:56;;;;;;;0.00;0.00;;;21.60;79.30;;;;;;4147979;28;20046;-64
2022/05/16 07:28:19;;;;;;;0.00;0.00;;;21.70;79.00;;;;;;4161868;28;20383;-65
2022/05/16 07:30:43;;;;;;;0.00;0.00;;;21.70;78.90;;;;;;4161645;28;20058;-65
2022/05/16 07:33:05;;;;;;;0.00;0.00;;;21.60;79.30;;;;;;4147958;28;20037;-65
2022/05/16 07:35:31;;;;;;;0.00;0.00;;;21.60;79.80;;;;;;4147771;28;20073;-65
2022/05/16 07:37:54;;;;;;;0.00;0.00;;;21.60;80.00;;;;;;4161670;28;20049;-65
2022/05/16 07:40:20;;;;;;;0.00;0.00;;;21.60;79.90;;;;;;4148136;28;20484;-65
2022/05/16 07:42:44;;;;;;;0.00;0.00;;;21.70;79.00;;;;;;4133883;28;20038;-65
2022/05/16 07:45:11;;;;;;;0.00;0.00;;;21.80;79.20;;;;;;4148094;28;20512;-65
2022/05/16 07:47:38;;;;;;;0.00;0.00;;;21.80;78.50;;;;;;4134704;28;20073;-67
2022/05/16 07:50:03;;;;;;;0.00;0.00;;;21.90;77.30;;;;;;4150239;28;20046;-65
2022/05/16 07:52:27;;;;;;;0.00;0.00;;;22.10;76.50;;;;;;4150480;28;20053;-65
2022/05/16 07:54:51;;;;;;;0.00;0.00;;;22.20;75.70;;;;;;4150161;28;20046;-65
2022/05/16 07:57:13;;;;;;;0.00;0.00;;;22.20;75.50;;;;;;4150224;28;20081;-66
2022/05/16 07:59:38;;;;;;;0.00;0.00;;;22.10;75.60;;;;;;4136668;28;20050;-65
2022/05/16 08:02:00;;;;;;;0.00;0.00;;;22.20;75.30;;;;;;4163864;28;20121;-64
2022/05/16 08:04:24;;;;;;;0.00;0.00;;;22.40;75.00;;;;;;4150253;28;20041;-65
2022/05/16 08:06:46;;;;;;;0.00;0.00;;;22.60;74.80;;;;;;4133639;28;20053;-65
2022/05/16 08:11:49;;;;;;;0.00;0.00;;;22.70;73.00;;;;;;4133675;28;20097;-65
2022/05/16 08:14:11;;;;;;;0.00;0.00;;;22.80;72.10;;;;;;4133716;28;20514;-66
2022/05/16 08:16:33;;;;;;;0.00;0.00;;;22.90;72.70;;;;;;4133677;28;20084;-65
2022/05/16 08:18:57;;;;;;;0.00;0.00;;;23.10;73.40;;;;;;4133951;28;20052;-65
2022/05/16 08:21:22;;;;;;;0.00;0.00;;;23.10;71.60;;;;;;4133641;28;20138;-65
2022/05/16 08:23:44;;;;;;;0.00;0.00;;;23.10;72.30;;;;;;4147429;28;20104;-65
2022/05/16 08:26:06;;;;;;;0.00;0.00;;;23.20;72.90;;;;;;4120235;28;20062;-66
2022/05/16 08:28:32;;;;;;;0.00;0.00;;;23.30;72.20;;;;;;4133800;28;20098;-66
2022/05/16 08:30:54;;;;;;;0.00;0.00;;;23.40;71.50;;;;;;4120285;28;20054;-65
2022/05/16 08:33:21;;;;;;;0.00;0.00;;;23.50;71.60;;;;;;4147276;28;20476;-65
2022/05/16 08:35:43;;;;;;;0.00;0.00;;;23.70;71.50;;;;;;4150042;28;20049;-66
2022/05/16 08:40:56;;;;;;;0.00;0.00;;;23.70;71.10;;;;;;4150739;28;20093;-66
2022/05/16 08:43:44;;;;;;;0.00;0.00;;;23.80;70.70;;;;;;4137257;28;20715;-65
2022/05/16 08:46:36;;;;;;;0.00;0.00;;;23.90;69.60;;;;;;4151024;28;20054;-66
2022/05/16 08:49:17;;;;;;;0.00;0.00;;;23.70;69.10;;;;;;4164334;28;20053;-65
2022/05/16 08:51:42;;;;;;;0.00;0.00;;;23.70;69.10;;;;;;4150897;28;20100;-65
2022/05/16 08:54:10;;;;;;;0.00;0.00;;;23.90;69.30;;;;;;4137504;28;20061;-65
2022/05/16 08:56:39;;;;;;;0.00;0.00;;;23.90;68.60;;;;;;4140851;28;20472;-66
2022/05/16 08:59:09;;;;;;;0.00;0.00;;;23.80;68.60;;;;;;4153600;28;20088;-65
2022/05/16 09:01:37;;;;;;;0.00;0.00;;;23.80;69.30;;;;;;4153999;28;20042;-66
2022/05/16 09:04:16;;;;;;;0.00;0.00;;;24.00;69.30;;;;;;4154042;28;20049;-66
2022/05/16 09:06:54;;;;;;;0.00;0.00;;;24.20;70.60;;;;;;4140532;28;20054;-67
2022/05/16 09:09:28;;;;;;;0.00;0.00;;;24.40;68.90;;;;;;4154119;28;20074;-66
2022/05/16 09:12:14;;;;;;;0.00;0.00;;;24.70;67.90;;;;;;4154249;28;20096;-66
2022/05/16 09:14:42;;;;;;;0.00;0.00;;;24.80;66.90;;;;;;4167617;28;20056;-66
2022/05/16 09:17:29;;;;;;;0.00;0.00;;;24.90;67.20;;;;;;4153972;28;20042;-66
2022/05/16 09:19:53;;;;;;;0.00;0.00;;;25.00;67.20;;;;;;4140479;28;20105;-66
2022/05/16 09:22:31;;;;;;;0.00;0.00;;;25.10;66.30;;;;;;4154163;28;20535;-66
2022/05/16 09:25:01;;;;;;;0.00;0.00;;;25.10;67.00;;;;;;4153923;28;20080;-66
2022/05/16 09:30:25;;;;;;;0.00;0.00;;;24.90;65.30;;;;;;4153670;28;20774;-66
2022/05/16 09:33:01;;;;;;;0.00;0.00;;;24.70;66.20;;;;;;4153524;28;20081;-65
2022/05/16 09:35:47;;;;;;;0.00;0.00;;;25.00;66.10;;;;;;4153555;28;20053;-65
2022/05/16 09:38:14;;;;;;;0.00;0.00;;;25.30;65.80;;;;;;4153147;28;20076;-67
2022/05/16 09:40:41;;;;;;;0.00;0.00;;;25.30;64.70;;;;;;4153781;28;20053;-65
2022/05/16 09:43:14;;;;;;;0.00;0.00;;;25.40;65.40;;;;;;4153191;28;20050;-65
2022/05/16 09:45:39;;;;;;;0.00;0.00;;;25.60;65.30;;;;;;4140081;28;20490;-66
2022/05/16 09:48:20;;;;;;;0.00;0.00;;;25.50;65.50;;;;;;4139788;28;20157;-67
2022/05/16 09:51:02;;;;;;;0.00;0.00;;;25.50;65.40;;;;;;4139007;28;20064;-65
2022/05/16 09:53:54;;;;;;;0.00;0.00;;;25.60;65.30;;;;;;4152822;28;20140;-66
2022/05/16 09:56:50;;;;;;;0.00;0.00;;;25.70;64.90;;;;;;4125391;28;20049;-66
2022/05/16 09:59:14;;;;;;;0.00;0.00;;;25.80;64.10;;;;;;4152330;28;20056;-66
2022/05/16 10:01:44;;;;;;;0.00;0.00;;;26.00;63.60;;;;;;4152110;28;20491;-65
2022/05/16 10:04:15;;;;;;;0.00;0.00;;;25.90;62.90;;;;;;4152161;28;20054;-65
2022/05/16 10:06:43;;;;;;;0.00;0.00;;;25.80;62.70;;;;;;4138234;28;20460;-67
2022/05/16 10:09:09;;;;;;;0.00;0.00;;;25.90;62.60;;;;;;4152466;28;20112;-66
2022/05/16 10:11:36;;;;;;;0.00;0.00;;;26.00;61.10;;;;;;4165738;28;20072;-67
2022/05/16 10:14:06;;;;;;;0.00;0.00;;;26.00;60.50;;;;;;4165757;28;20045;-66
2022/05/16 10:16:32;;;;;;;0.00;0.00;;;26.00;60.70;;;;;;4138806;28;20531;-66
2022/05/16 10:19:26;;;;;;;0.00;0.00;;;26.20;60.40;;;;;;4151951;28;20093;-65
2022/05/16 10:21:57;;;;;;;0.00;0.00;;;26.30;59.40;;;;;;4152286;28;20054;-65
2022/05/16 10:24:20;;;;;;;0.00;0.00;;;26.50;59.90;;;;;;4152053;28;20462;-66
2022/05/16 10:26:48;;;;;;;0.00;0.00;;;26.40;58.80;;;;;;4151883;28;20133;-65
2022/05/16 10:29:16;;;;;;;0.00;0.00;;;26.40;59.10;;;;;;4138371;28;20058;-65
2022/05/16 10:34:49;;;;;;;0.00;0.00;;;26.60;57.50;;;;;;4138329;28;20047;-66
2022/05/16 10:37:15;;;;;;;0.00;0.00;;;26.50;56.70;;;;;;4151874;28;20045;-65
2022/05/16 10:39:45;;;;;;;0.00;0.00;;;26.40;56.30;;;;;;4151719;28;20038;-64
2022/05/16 10:42:26;;;;;;;0.00;0.00;;;26.20;57.00;;;;;;4138693;28;20476;-65
2022/05/16 10:44:55;;;;;;;0.00;0.00;;;26.00;56.40;;;;;;4151989;28;20065;-64
2022/05/16 10:47:28;;;;;;;0.00;0.00;;;26.00;57.00;;;;;;4151954;28;20053;-64
2022/05/16 10:51:03;;;;;;;0.00;0.00;;;26.10;57.60;;;;;;4160414;27;20324;-65
2022/05/16 10:54:00;;;;;;;0.00;0.00;;;26.30;56.60;;;;;;4132505;28;20049;-66
2022/05/16 10:56:47;;;;;;;0.00;0.00;;;26.40;56.60;;;;;;4146037;28;20515;-65
2022/05/16 10:59:21;;;;;;;0.00;0.00;;;26.20;55.70;;;;;;4139290;28;20109;-65
2022/05/16 11:02:10;;;;;;;0.00;0.00;;;26.20;55.00;;;;;;4132410;28;20046;-65
2022/05/16 11:05:02;;;;;;;0.00;0.00;;;26.20;55.60;;;;;;4135733;28;20050;-65
2022/05/16 11:07:58;;;;;;;0.00;0.00;;;26.20;56.00;;;;;;4146133;28;20523;-65
2022/05/16 11:10:59;;;;;;;0.00;0.00;;;26.20;55.60;;;;;;4131895;28;20508;-65
2022/05/16 11:13:55;;;;;;;0.00;0.00;;;26.20;56.70;;;;;;4151183;28;20042;-65
2022/05/16 11:16:24;;;;;;;0.00;0.00;;;26.20;56.20;;;;;;4132202;28;20136;-64
2022/05/16 11:19:13;;;;;;;0.00;0.00;;;26.20;56.00;;;;;;4132271;28;20061;-65
2022/05/16 11:21:54;;;;;;;0.00;0.00;;;26.20;56.20;;;;;;4132154;28;20172;-65
2022/05/16 11:24:44;;;;;;;0.00;0.00;;;26.00;56.20;;;;;;4132309;28;20120;-66
2022/05/16 11:27:35;;;;;;;0.00;0.00;;;26.00;56.10;;;;;;4132252;28;20058;-65
2022/05/16 11:30:39;;;;;;;0.00;0.00;;;26.10;56.10;;;;;;4132482;28;20042;-66
2022/05/16 11:33:24;;;;;;;0.00;0.00;;;26.30;56.30;;;;;;4159242;28;20110;-66
2022/05/16 11:35:58;;;;;;;0.00;0.00;;;26.50;56.10;;;;;;4131932;28;20108;-65
2022/05/16 11:38:42;;;;;;;0.00;0.00;;;26.70;56.20;;;;;;4132174;28;20059;-65
2022/05/16 11:41:40;;;;;;;0.00;0.00;;;26.90;56.20;;;;;;4159358;28;20046;-66
2022/05/16 11:44:28;;;;;;;0.00;0.00;;;26.90;55.00;;;;;;4131880;28;20049;-66
2022/05/16 11:47:21;;;;;;;0.00;0.00;;;27.00;54.90;;;;;;4131996;28;20093;-64
2022/05/16 11:50:24;;;;;;;0.00;0.00;;;27.00;54.60;;;;;;4131751;28;20460;-65
2022/05/16 11:53:36;;;;;;;0.00;0.00;;;26.80;54.50;;;;;;4145268;28;20047;-64
2022/05/16 12:01:34;;;;;;;0.00;0.00;;;26.80;54.00;;;;;;4164916;27;20085;-64
2022/05/16 12:04:22;;;;;;;0.00;0.00;;;26.70;53.30;;;;;;4134397;28;20049;-65
2022/05/16 12:06:50;;;;;;;0.00;0.00;;;26.70;53.30;;;;;;4134521;28;20042;-65
2022/05/16 12:09:50;;;;;;;0.00;0.00;;;26.60;54.10;;;;;;4161632;28;20127;-64
2022/05/16 12:12:31;;;;;;;0.00;0.00;;;26.70;54.80;;;;;;4134257;28;20107;-64
2022/05/16 12:15:20;;;;;;;0.00;0.00;;;26.90;53.30;;;;;;4134156;28;20107;-64
2022/05/16 12:18:05;;;;;;;0.00;0.00;;;26.80;52.90;;;;;;4161612;28;20368;-64
2022/05/16 12:20:42;;;;;;;0.00;0.00;;;26.80;52.80;;;;;;4134395;28;20050;-64
2022/05/16 12:23:06;;;;;;;0.00;0.00;;;26.80;53.20;;;;;;4120965;28;20501;-64
2022/05/16 12:25:39;;;;;;;0.00;0.00;;;26.80;53.50;;;;;;4120551;28;20051;-65
2022/05/16 12:28:23;;;;;;;0.00;0.00;;;26.90;54.80;;;;;;4134611;28;20400;-65
2022/05/16 12:30:57;;;;;;;0.00;0.00;;;26.90;53.50;;;;;;4107367;28;20038;-64
2022/05/16 12:33:42;;;;;;;0.00;0.00;;;26.90;53.10;;;;;;4120500;28;20058;-64
2022/05/16 12:36:14;;;;;;;0.00;0.00;;;26.80;52.10;;;;;;4120370;28;20160;-64
2022/05/16 12:38:36;;;;;;;0.00;0.00;;;26.60;51.00;;;;;;4161164;28;20445;-63
2022/05/16 12:41:44;;;;;;;0.00;0.00;;;26.60;51.40;;;;;;4147463;28;20045;-63
2022/05/16 12:44:14;;;;;;;0.00;0.00;;;26.40;51.30;;;;;;4160864;28;20046;-64
2022/05/16 12:46:58;;;;;;;0.00;0.00;;;26.30;51.40;;;;;;4147921;28;20045;-65
2022/05/16 12:49:50;;;;;;;0.00;0.00;;;26.30;51.10;;;;;;4133389;28;20054;-64
2022/05/16 12:52:33;;;;;;;0.00;0.00;;;26.10;52.20;;;;;;4133771;28;20095;-66
2022/05/16 12:55:01;;;;;;;0.00;0.00;;;25.90;52.50;;;;;;4133258;28;20669;-65
2022/05/16 12:57:57;;;;;;;0.00;0.00;;;25.70;52.60;;;;;;4133567;28;20050;-64
2022/05/16 13:00:31;;;;;;;0.00;0.00;;;25.60;52.90;;;;;;4139450;28;20069;-64
2022/05/16 13:03:10;;;;;;;0.00;0.00;;;25.60;53.70;;;;;;4119902;28;20050;-64
2022/05/16 13:06:03;;;;;;;0.00;0.00;;;25.90;54.30;;;;;;4147647;28;20503;-64
2022/05/16 13:08:50;;;;;;;0.00;0.00;;;26.20;55.40;;;;;;4133601;28;20111;-64
2022/05/16 13:11:21;;;;;;;0.00;0.00;;;26.40;56.20;;;;;;4161053;28;20046;-65
2022/05/16 13:13:46;;;;;;;0.00;0.00;;;26.60;56.00;;;;;;4132667;28;20484;-65
2022/05/16 13:16:17;;;;;;;0.00;0.00;;;26.70;54.80;;;;;;4147453;28;20415;-65
2022/05/16 13:18:45;;;;;;;0.00;0.00;;;26.70;53.70;;;;;;4119969;28;20084;-65
2022/05/16 13:21:20;;;;;;;0.00;0.00;;;26.70;52.60;;;;;;4133344;28;20141;-64
2022/05/16 13:23:42;;;;;;;0.00;0.00;;;26.70;52.10;;;;;;4119828;28;20100;-66
2022/05/16 13:31:34;;;;;;;0.00;0.00;;;26.80;52.40;;;;;;4119654;28;20140;-65
2022/05/16 13:33:59;;;;;;;0.00;0.00;;;27.00;52.50;;;;;;4160792;28;20045;-64
2022/05/16 13:36:25;;;;;;;0.00;0.00;;;26.90;52.50;;;;;;4133280;28;20042;-65
2022/05/16 13:38:57;;;;;;;0.00;0.00;;;26.90;52.40;;;;;;4119739;28;20047;-64
2022/05/16 13:41:23;;;;;;;0.00;0.00;;;27.00;52.10;;;;;;4160504;28;20077;-65